Time;durP1;ratioP1;P1;durP2;ratioP2;P2;SDS_P1;SDS_P2;PMS_P1;PMS_P2;Temp;Humidity;BMP_temperature;BMP_pressure;BME280_temperature;BME280_humidity;BME280_pressure;Samples;Min_cycle;Max_cycle;Signal;HPM_P1;HPM_P2
2023/05/01 00:01:05;;;;;;;26.00;20.70;;;;;;;-128.00;-1.00;-1.00;105750;1251;1003855;-73
2023/05/01 00:03:32;;;;;;;31.90;22.60;;;;;;;-128.00;-1.00;-1.00;105791;1251;1003415;-73
2023/05/01 00:06:03;;;;;;;25.60;20.80;;;;;;;-128.00;-1.00;-1.00;105784;1251;1004056;-72
2023/05/01 00:08:31;;;;;;;27.00;22.00;;;;;;;-128.00;-1.00;-1.00;105735;1251;1061742;-72
2023/05/01 00:11:04;;;;;;;26.80;22.10;;;;;;;-128.00;-1.00;-1.00;105773;1251;1004925;-72
2023/05/01 00:13:32;;;;;;;27.20;21.20;;;;;;;-128.00;-1.00;-1.00;105740;1251;1058889;-73
2023/05/01 00:15:59;;;;;;;27.80;21.10;;;;;;;-128.00;-1.00;-1.00;105738;1250;1003801;-73
2023/05/01 00:18:25;;;;;;;28.80;23.00;;;;;;;-128.00;-1.00;-1.00;105793;1251;1004109;-73
2023/05/01 00:20:52;;;;;;;28.00;22.40;;;;;;;-128.00;-1.00;-1.00;105793;1251;1005158;-72
2023/05/01 00:23:18;;;;;;;28.10;21.60;;;;;;;-128.00;-1.00;-1.00;105781;1250;1004492;-73
2023/05/01 00:25:45;;;;;;;27.70;22.90;;;;;;;-128.00;-1.00;-1.00;105609;1251;1003789;-72
2023/05/01 00:28:11;;;;;;;28.50;24.20;;;;;;;-128.00;-1.00;-1.00;105737;1251;1003813;-72
2023/05/01 00:30:39;;;;;;;32.80;24.20;;;;;;;-128.00;-1.00;-1.00;105814;1251;1004246;-72
2023/05/01 00:33:05;;;;;;;28.10;22.70;;;;;;;-128.00;-1.00;-1.00;105806;1251;1003736;-72
2023/05/01 00:35:34;;;;;;;31.40;24.00;;;;;;;-128.00;-1.00;-1.00;105769;1251;1003977;-72
2023/05/01 00:38:01;;;;;;;27.30;22.80;;;;;;;-128.00;-1.00;-1.00;105730;1251;1058771;-72
2023/05/01 00:40:27;;;;;;;30.30;22.10;;;;;;;-128.00;-1.00;-1.00;105739;1251;1003812;-72
2023/05/01 00:42:54;;;;;;;33.70;23.00;;;;;;;-128.00;-1.00;-1.00;105810;1251;1004326;-72
2023/05/01 00:45:21;;;;;;;30.00;23.40;;;;;;;-128.00;-1.00;-1.00;105736;1251;1003381;-73
2023/05/01 00:47:48;;;;;;;31.90;24.00;;;;;;;-128.00;-1.00;-1.00;105732;1251;1004021;-72
2023/05/01 00:50:14;;;;;;;29.30;23.60;;;;;;;-128.00;-1.00;-1.00;105769;1251;1004612;-72
2023/05/01 00:52:41;;;;;;;30.20;24.10;;;;;;;-128.00;-1.00;-1.00;105700;1251;1004649;-72
2023/05/01 00:55:08;;;;;;;41.00;29.20;;;;;;;-128.00;-1.00;-1.00;105788;1251;1005170;-73
2023/05/01 00:57:34;;;;;;;32.00;25.90;;;;;;;-128.00;-1.00;-1.00;105754;1251;1003932;-72
2023/05/01 01:00:01;;;;;;;29.80;24.80;;;;;;;-128.00;-1.00;-1.00;105648;1251;1004505;-73
2023/05/01 01:02:27;;;;;;;38.60;30.10;;;;;;;-128.00;-1.00;-1.00;105737;1251;1004101;-72
2023/05/01 01:04:54;;;;;;;39.30;29.90;;;;;;;-128.00;-1.00;-1.00;105805;1251;1004629;-72
2023/05/01 01:07:46;;;;;;;33.20;28.00;;;;;;;-128.00;-1.00;-1.00;105815;1251;1003743;-73
2023/05/01 01:10:37;;;;;;;37.30;29.80;;;;;;;-128.00;-1.00;-1.00;105746;1251;1060972;-73
2023/05/01 01:13:11;;;;;;;41.30;31.20;;;;;;;-128.00;-1.00;-1.00;105777;1251;1055451;-72
2023/05/01 01:16:08;;;;;;;38.70;29.00;;;;;;;-128.00;-1.00;-1.00;105707;1251;1060222;-71
2023/05/01 01:18:49;;;;;;;37.60;30.70;;;;;;;-128.00;-1.00;-1.00;105737;1251;1044838;-72
2023/05/01 01:21:23;;;;;;;35.60;29.80;;;;;;;-128.00;-1.00;-1.00;105067;1251;1046970;-73
2023/05/01 01:24:02;;;;;;;39.20;30.40;;;;;;;-128.00;-1.00;-1.00;105788;1251;1061557;-72
2023/05/01 01:26:53;;;;;;;35.90;28.30;;;;;;;-128.00;-1.00;-1.00;105838;1251;1057062;-73
2023/05/01 01:29:42;;;;;;;40.90;29.30;;;;;;;-128.00;-1.00;-1.00;105613;1251;1059195;-72
2023/05/01 01:32:30;;;;;;;36.60;28.60;;;;;;;-128.00;-1.00;-1.00;105764;1251;1045204;-72
2023/05/01 01:35:03;;;;;;;38.60;29.80;;;;;;;-128.00;-1.00;-1.00;105772;1251;1046270;-72
2023/05/01 01:37:50;;;;;;;32.70;27.30;;;;;;;-128.00;-1.00;-1.00;105812;1250;1061286;-71
2023/05/01 01:40:21;;;;;;;36.50;28.40;;;;;;;-128.00;-1.00;-1.00;105757;1251;1054756;-72
2023/05/01 01:42:55;;;;;;;38.30;31.00;;;;;;;-128.00;-1.00;-1.00;105762;1251;1059023;-73
2023/05/01 01:45:29;;;;;;;40.90;32.50;;;;;;;-128.00;-1.00;-1.00;105801;1251;1046499;-73
2023/05/01 01:47:56;;;;;;;41.30;32.70;;;;;;;-128.00;-1.00;-1.00;105620;1251;1047853;-73
2023/05/01 01:50:25;;;;;;;41.60;30.90;;;;;;;-128.00;-1.00;-1.00;105800;1251;1004672;-72
2023/05/01 01:52:53;;;;;;;40.00;30.00;;;;;;;-128.00;-1.00;-1.00;105800;1251;1055236;-73
2023/05/01 01:55:24;;;;;;;41.20;29.60;;;;;;;-128.00;-1.00;-1.00;105732;1251;1003229;-73
2023/05/01 01:57:51;;;;;;;42.70;31.50;;;;;;;-128.00;-1.00;-1.00;105759;1251;1045776;-72
2023/05/01 02:00:33;;;;;;;38.20;30.90;;;;;;;-128.00;-1.00;-1.00;105793;1251;1004628;-72
2023/05/01 02:03:01;;;;;;;40.80;31.10;;;;;;;-128.00;-1.00;-1.00;105822;1251;1061824;-73
2023/05/01 02:05:27;;;;;;;44.10;33.70;;;;;;;-128.00;-1.00;-1.00;105754;1251;1004998;-72
2023/05/01 02:07:56;;;;;;;38.10;31.80;;;;;;;-128.00;-1.00;-1.00;105741;1251;1004763;-73
2023/05/01 02:10:24;;;;;;;38.60;31.70;;;;;;;-128.00;-1.00;-1.00;105605;1251;1044937;-72
2023/05/01 02:12:53;;;;;;;39.20;32.40;;;;;;;-128.00;-1.00;-1.00;105811;1251;1004462;-72
2023/05/01 02:15:21;;;;;;;45.50;35.50;;;;;;;-128.00;-1.00;-1.00;105728;1251;1061278;-72
2023/05/01 02:17:49;;;;;;;47.40;37.90;;;;;;;-128.00;-1.00;-1.00;105796;1251;1005058;-72
2023/05/01 02:20:16;;;;;;;51.30;37.90;;;;;;;-128.00;-1.00;-1.00;105622;1251;1004649;-72
2023/05/01 02:22:45;;;;;;;47.20;36.50;;;;;;;-128.00;-1.00;-1.00;105815;1251;1004030;-72
2023/05/01 02:25:13;;;;;;;50.10;40.30;;;;;;;-128.00;-1.00;-1.00;105819;1252;1047545;-73
2023/05/01 02:27:51;;;;;;;53.20;42.00;;;;;;;-128.00;-1.00;-1.00;105760;1251;1061532;-72
2023/05/01 02:30:18;;;;;;;48.80;38.50;;;;;;;-128.00;-1.00;-1.00;105718;1251;1056035;-72
2023/05/01 02:32:45;;;;;;;51.90;40.20;;;;;;;-128.00;-1.00;-1.00;105794;1251;1003743;-72
2023/05/01 02:35:11;;;;;;;52.40;40.60;;;;;;;-128.00;-1.00;-1.00;105491;1251;1004290;-72
2023/05/01 02:37:38;;;;;;;54.10;41.00;;;;;;;-128.00;-1.00;-1.00;105797;1250;1004397;-72
2023/05/01 02:40:06;;;;;;;54.80;42.50;;;;;;;-128.00;-1.00;-1.00;105592;1251;1004800;-72
2023/05/01 02:42:34;;;;;;;53.10;42.10;;;;;;;-128.00;-1.00;-1.00;105659;1251;1004215;-72
2023/05/01 02:45:04;;;;;;;46.20;39.60;;;;;;;-128.00;-1.00;-1.00;105808;1251;1004778;-72
2023/05/01 02:47:33;;;;;;;;;;;;;;;-128.00;-1.00;-1.00;105792;1251;1046075;-72
2023/05/01 02:50:01;;;;;;;48.30;39.30;;;;;;;-128.00;-1.00;-1.00;105725;1251;1047229;-72
2023/05/01 02:52:28;;;;;;;51.20;41.30;;;;;;;-128.00;-1.00;-1.00;105819;1251;1004458;-72
2023/05/01 02:54:56;;;;;;;53.30;42.80;;;;;;;-128.00;-1.00;-1.00;105812;1251;1003706;-72
2023/05/01 02:57:22;;;;;;;52.30;42.90;;;;;;;-128.00;-1.00;-1.00;105725;1251;1004569;-72
2023/05/01 02:59:49;;;;;;;50.80;41.90;;;;;;;-128.00;-1.00;-1.00;105573;1251;1004041;-71
2023/05/01 03:02:15;;;;;;;54.90;43.50;;;;;;;-128.00;-1.00;-1.00;105799;1251;1004565;-71
2023/05/01 03:04:42;;;;;;;54.60;42.30;;;;;;;-128.00;-1.00;-1.00;105803;1251;1003702;-72
2023/05/01 03:07:09;;;;;;;51.90;43.90;;;;;;;-128.00;-1.00;-1.00;105807;1251;1004289;-72
2023/05/01 03:09:35;;;;;;;52.30;41.60;;;;;;;-128.00;-1.00;-1.00;105790;1251;1003859;-72
2023/05/01 03:12:02;;;;;;;54.40;42.50;;;;;;;-128.00;-1.00;-1.00;105769;1251;1004266;-72
2023/05/01 03:14:29;;;;;;;54.10;42.10;;;;;;;-128.00;-1.00;-1.00;105735;1251;1005113;-72
2023/05/01 03:16:57;;;;;;;49.40;40.50;;;;;;;-128.00;-1.00;-1.00;105818;1251;1003428;-72
2023/05/01 03:19:23;;;;;;;51.70;41.10;;;;;;;-128.00;-1.00;-1.00;105750;1251;1004845;-72
2023/05/01 03:21:50;;;;;;;51.10;41.80;;;;;;;-128.00;-1.00;-1.00;105806;1251;1004657;-72
2023/05/01 03:24:16;;;;;;;55.70;44.40;;;;;;;-128.00;-1.00;-1.00;105781;1251;1003529;-72
2023/05/01 03:26:43;;;;;;;57.90;44.10;;;;;;;-128.00;-1.00;-1.00;105658;1251;1003652;-71
2023/05/01 03:29:12;;;;;;;53.10;43.40;;;;;;;-128.00;-1.00;-1.00;105754;1251;1004355;-72
2023/05/01 03:31:38;;;;;;;47.20;40.50;;;;;;;-128.00;-1.00;-1.00;105635;1251;1056768;-72
2023/05/01 03:34:05;;;;;;;47.00;39.20;;;;;;;-128.00;-1.00;-1.00;105819;1251;1004045;-73
2023/05/01 03:36:32;;;;;;;42.10;35.00;;;;;;;-128.00;-1.00;-1.00;105778;1251;1003586;-72
2023/05/01 03:38:59;;;;;;;37.30;29.70;;;;;;;-128.00;-1.00;-1.00;105799;1251;1005542;-71
2023/05/01 03:41:26;;;;;;;34.90;27.20;;;;;;;-128.00;-1.00;-1.00;105792;1250;1003322;-72
2023/05/01 03:43:53;;;;;;;38.60;32.70;;;;;;;-128.00;-1.00;-1.00;105798;1251;1004228;-72
2023/05/01 03:46:20;;;;;;;37.90;34.00;;;;;;;-128.00;-1.00;-1.00;105774;1251;1004528;-72
2023/05/01 03:48:47;;;;;;;35.90;30.00;;;;;;;-128.00;-1.00;-1.00;105844;1251;1003946;-73
2023/05/01 03:51:16;;;;;;;28.80;25.60;;;;;;;-128.00;-1.00;-1.00;105796;1251;1004260;-72
2023/05/01 03:53:42;;;;;;;29.30;26.10;;;;;;;-128.00;-1.00;-1.00;105757;1251;1061874;-72
2023/05/01 03:56:08;;;;;;;28.30;24.90;;;;;;;-128.00;-1.00;-1.00;105785;1251;1005871;-72
2023/05/01 03:58:35;;;;;;;26.70;23.10;;;;;;;-128.00;-1.00;-1.00;105780;1251;1005464;-73
2023/05/01 04:01:02;;;;;;;25.70;23.00;;;;;;;-128.00;-1.00;-1.00;105769;1251;1004487;-73
2023/05/01 04:03:29;;;;;;;22.60;20.10;;;;;;;-128.00;-1.00;-1.00;105791;1251;1005059;-73
2023/05/01 04:05:55;;;;;;;24.90;19.90;;;;;;;-128.00;-1.00;-1.00;105790;1251;1004555;-73
2023/05/01 04:08:22;;;;;;;21.30;17.50;;;;;;;-128.00;-1.00;-1.00;105754;1250;1004592;-73
2023/05/01 04:10:49;;;;;;;20.80;18.50;;;;;;;-128.00;-1.00;-1.00;105772;1250;1004206;-73
2023/05/01 04:13:15;;;;;;;21.10;18.90;;;;;;;-128.00;-1.00;-1.00;105770;1252;1004348;-73
2023/05/01 04:15:45;;;;;;;20.90;18.80;;;;;;;-128.00;-1.00;-1.00;105866;1251;1003670;-73
2023/05/01 04:18:12;;;;;;;20.20;17.60;;;;;;;-128.00;-1.00;-1.00;105819;1251;1061134;-73
2023/05/01 04:20:39;;;;;;;18.60;16.80;;;;;;;-128.00;-1.00;-1.00;105808;1252;1004439;-73
2023/05/01 04:23:06;;;;;;;18.50;16.50;;;;;;;-128.00;-1.00;-1.00;105775;1251;1004529;-73
2023/05/01 04:25:33;;;;;;;20.20;17.10;;;;;;;-128.00;-1.00;-1.00;105795;1251;1004251;-73
2023/05/01 04:27:59;;;;;;;18.20;16.50;;;;;;;-128.00;-1.00;-1.00;105799;1250;1004323;-72
2023/05/01 04:30:25;;;;;;;18.20;16.40;;;;;;;-128.00;-1.00;-1.00;105789;1251;1004471;-72
2023/05/01 04:32:52;;;;;;;16.60;14.90;;;;;;;-128.00;-1.00;-1.00;105794;1251;1003731;-73
2023/05/01 04:35:19;;;;;;;16.70;14.90;;;;;;;-128.00;-1.00;-1.00;105770;1251;1004273;-73
2023/05/01 04:37:46;;;;;;;15.30;13.90;;;;;;;-128.00;-1.00;-1.00;105781;1251;1003737;-73
2023/05/01 04:40:12;;;;;;;14.40;12.90;;;;;;;-128.00;-1.00;-1.00;105810;1251;1004463;-72
2023/05/01 04:42:39;;;;;;;17.20;15.50;;;;;;;-128.00;-1.00;-1.00;105687;1251;1004716;-73
2023/05/01 04:45:06;;;;;;;16.20;14.60;;;;;;;-128.00;-1.00;-1.00;105808;1251;1004335;-73
2023/05/01 04:47:32;;;;;;;16.30;14.60;;;;;;;-128.00;-1.00;-1.00;105796;1251;1004467;-73
2023/05/01 04:50:00;;;;;;;16.50;14.10;;;;;;;-128.00;-1.00;-1.00;105770;1250;1004896;-72
2023/05/01 04:52:26;;;;;;;15.70;14.10;;;;;;;-128.00;-1.00;-1.00;105755;1251;1004705;-72
2023/05/01 04:54:53;;;;;;;15.00;13.50;;;;;;;-128.00;-1.00;-1.00;105670;1250;1004604;-73
2023/05/01 04:57:19;;;;;;;15.20;13.60;;;;;;;-128.00;-1.00;-1.00;105771;1253;1005098;-73
2023/05/01 04:59:47;;;;;;;15.00;13.40;;;;;;;-128.00;-1.00;-1.00;105763;1251;1003442;-73
2023/05/01 05:02:13;;;;;;;12.80;11.60;;;;;;;-128.00;-1.00;-1.00;105761;1252;1004453;-72
2023/05/01 05:04:40;;;;;;;12.40;11.00;;;;;;;-128.00;-1.00;-1.00;105672;1251;1005200;-73
2023/05/01 05:07:07;;;;;;;12.40;11.00;;;;;;;-128.00;-1.00;-1.00;105779;1251;1004250;-73
2023/05/01 05:09:34;;;;;;;11.80;10.40;;;;;;;-128.00;-1.00;-1.00;105783;1251;1004282;-73
2023/05/01 05:12:02;;;;;;;13.70;10.50;;;;;;;-128.00;-1.00;-1.00;105778;1251;1003868;-73
2023/05/01 05:14:29;;;;;;;9.40;8.50;;;;;;;-128.00;-1.00;-1.00;105756;1251;1003515;-74
2023/05/01 05:16:56;;;;;;;9.90;8.90;;;;;;;-128.00;-1.00;-1.00;105853;1251;1005039;-73
2023/05/01 05:19:22;;;;;;;13.90;10.70;;;;;;;-128.00;-1.00;-1.00;105760;1251;1004668;-73
2023/05/01 05:21:49;;;;;;;9.60;8.60;;;;;;;-128.00;-1.00;-1.00;105841;1251;1004695;-73
2023/05/01 05:24:15;;;;;;;9.70;8.50;;;;;;;-128.00;-1.00;-1.00;105773;1251;1004706;-74
2023/05/01 05:26:42;;;;;;;11.50;8.50;;;;;;;-128.00;-1.00;-1.00;105791;1251;1003519;-72
2023/05/01 05:29:08;;;;;;;9.80;8.40;;;;;;;-128.00;-1.00;-1.00;105770;1253;1004799;-73
2023/05/01 05:31:35;;;;;;;9.40;8.10;;;;;;;-128.00;-1.00;-1.00;105769;1251;1004219;-73
2023/05/01 05:34:01;;;;;;;10.60;8.80;;;;;;;-128.00;-1.00;-1.00;105795;1251;1004233;-72
2023/05/01 05:36:28;;;;;;;13.50;9.60;;;;;;;-128.00;-1.00;-1.00;105746;1251;1004137;-72
2023/05/01 05:38:55;;;;;;;11.40;10.20;;;;;;;-128.00;-1.00;-1.00;105780;1251;1004640;-73
2023/05/01 05:41:22;;;;;;;13.90;10.40;;;;;;;-128.00;-1.00;-1.00;105817;1251;1003975;-73
2023/05/01 05:43:49;;;;;;;14.10;11.70;;;;;;;-128.00;-1.00;-1.00;105656;1251;1004516;-73
2023/05/01 05:46:15;;;;;;;10.40;9.10;;;;;;;-128.00;-1.00;-1.00;105791;1253;1003979;-73
2023/05/01 05:48:42;;;;;;;11.00;9.20;;;;;;;-128.00;-1.00;-1.00;105744;1252;1004823;-73
2023/05/01 05:51:08;;;;;;;9.10;7.20;;;;;;;-128.00;-1.00;-1.00;105773;1251;1004044;-73
2023/05/01 05:53:35;;;;;;;8.20;6.70;;;;;;;-128.00;-1.00;-1.00;105781;1253;1003358;-72
2023/05/01 05:56:02;;;;;;;9.30;7.90;;;;;;;-128.00;-1.00;-1.00;105805;1251;1004279;-73
2023/05/01 05:58:28;;;;;;;8.10;6.90;;;;;;;-128.00;-1.00;-1.00;105835;1251;1004363;-73
2023/05/01 06:00:55;;;;;;;10.30;7.30;;;;;;;-128.00;-1.00;-1.00;105797;1251;1004463;-73
2023/05/01 06:03:21;;;;;;;10.00;7.40;;;;;;;-128.00;-1.00;-1.00;105747;1251;1004201;-73
2023/05/01 06:05:48;;;;;;;8.60;7.60;;;;;;;-128.00;-1.00;-1.00;105747;1250;1004727;-73
2023/05/01 06:08:15;;;;;;;8.40;7.30;;;;;;;-128.00;-1.00;-1.00;105798;1251;1003889;-73
2023/05/01 06:10:42;;;;;;;8.50;7.30;;;;;;;-128.00;-1.00;-1.00;105789;1251;1003879;-73
2023/05/01 06:13:10;;;;;;;9.50;6.50;;;;;;;-128.00;-1.00;-1.00;105758;1251;1005016;-73
2023/05/01 06:15:37;;;;;;;9.40;7.60;;;;;;;-128.00;-1.00;-1.00;105763;1251;1003599;-73
2023/05/01 06:18:03;;;;;;;9.30;7.00;;;;;;;-128.00;-1.00;-1.00;105809;1251;1004101;-73
2023/05/01 06:20:30;;;;;;;8.50;7.20;;;;;;;-128.00;-1.00;-1.00;105791;1251;1004759;-73
2023/05/01 06:22:57;;;;;;;9.20;6.50;;;;;;;-128.00;-1.00;-1.00;105803;1251;1005207;-73
2023/05/01 06:25:24;;;;;;;8.30;6.30;;;;;;;-128.00;-1.00;-1.00;105778;1251;1004040;-73
2023/05/01 06:27:50;;;;;;;8.00;6.10;;;;;;;-128.00;-1.00;-1.00;105765;1253;1004268;-73
2023/05/01 06:30:18;;;;;;;9.90;6.90;;;;;;;-128.00;-1.00;-1.00;105776;1251;1004531;-72
2023/05/01 06:32:45;;;;;;;9.70;7.00;;;;;;;-128.00;-1.00;-1.00;105792;1251;1005183;-72
2023/05/01 06:35:13;;;;;;;11.90;9.30;;;;;;;-128.00;-1.00;-1.00;105767;1250;1004672;-73
2023/05/01 06:37:39;;;;;;;8.90;6.70;;;;;;;-128.00;-1.00;-1.00;105770;1251;1004001;-73
2023/05/01 06:40:09;;;;;;;8.60;6.90;;;;;;;-128.00;-1.00;-1.00;105604;1251;1003949;-73
2023/05/01 06:42:36;;;;;;;8.30;6.90;;;;;;;-128.00;-1.00;-1.00;105745;1252;1048855;-72
2023/05/01 06:45:04;;;;;;;11.20;6.90;;;;;;;-128.00;-1.00;-1.00;105810;1251;1003711;-73
2023/05/01 06:47:31;;;;;;;8.20;7.00;;;;;;;-128.00;-1.00;-1.00;105553;1251;1004428;-73
2023/05/01 06:49:58;;;;;;;8.10;5.90;;;;;;;-128.00;-1.00;-1.00;105777;1251;1003940;-73
2023/05/01 06:52:24;;;;;;;10.40;7.90;;;;;;;-128.00;-1.00;-1.00;105769;1251;1003455;-73
2023/05/01 06:54:51;;;;;;;23.50;14.60;;;;;;;-128.00;-1.00;-1.00;105773;1251;1004725;-73
2023/05/01 06:57:17;;;;;;;10.80;8.00;;;;;;;-128.00;-1.00;-1.00;105773;1253;1004879;-73
2023/05/01 06:59:44;;;;;;;9.90;6.50;;;;;;;-128.00;-1.00;-1.00;105763;1251;1004189;-72
2023/05/01 07:02:11;;;;;;;8.30;6.30;;;;;;;-128.00;-1.00;-1.00;105759;1251;1004504;-73
2023/05/01 07:04:37;;;;;;;9.60;5.90;;;;;;;-128.00;-1.00;-1.00;105799;1250;1004116;-73
2023/05/01 07:07:04;;;;;;;8.40;5.90;;;;;;;-128.00;-1.00;-1.00;105812;1251;1005148;-73
2023/05/01 07:09:30;;;;;;;8.30;6.50;;;;;;;-128.00;-1.00;-1.00;105751;1251;1004213;-72
2023/05/01 07:11:57;;;;;;;8.50;6.10;;;;;;;-128.00;-1.00;-1.00;105641;1251;1003506;-73
2023/05/01 07:14:24;;;;;;;9.40;6.40;;;;;;;-128.00;-1.00;-1.00;105790;1252;1005450;-72
2023/05/01 07:16:50;;;;;;;6.50;4.30;;;;;;;-128.00;-1.00;-1.00;105747;1251;1005505;-72
2023/05/01 07:19:17;;;;;;;8.40;5.00;;;;;;;-128.00;-1.00;-1.00;105765;1253;1004329;-72
2023/05/01 07:21:43;;;;;;;8.70;4.50;;;;;;;-128.00;-1.00;-1.00;105811;1251;1004335;-73
2023/05/01 07:24:11;;;;;;;8.20;4.60;;;;;;;-128.00;-1.00;-1.00;105784;1251;1004258;-72
2023/05/01 07:26:38;;;;;;;6.60;4.70;;;;;;;-128.00;-1.00;-1.00;105746;1251;1004097;-72
2023/05/01 07:29:04;;;;;;;8.40;4.70;;;;;;;-128.00;-1.00;-1.00;105749;1252;1003974;-72
2023/05/01 07:31:31;;;;;;;6.00;4.40;;;;;;;-128.00;-1.00;-1.00;105844;1254;1004644;-72
2023/05/01 07:33:57;;;;;;;18.30;15.50;;;;;;;-128.00;-1.00;-1.00;105752;1251;1003830;-72
2023/05/01 07:36:24;;;;;;;7.20;5.30;;;;;;;-128.00;-1.00;-1.00;105741;1253;1003630;-72
2023/05/01 07:38:50;;;;;;;7.20;4.40;;;;;;;-128.00;-1.00;-1.00;105767;1251;1004491;-73
2023/05/01 07:41:17;;;;;;;7.30;5.40;;;;;;;-128.00;-1.00;-1.00;105775;1253;1005831;-73
2023/05/01 07:43:43;;;;;;;6.30;4.30;;;;;;;-128.00;-1.00;-1.00;105788;1251;1003476;-73
2023/05/01 07:46:10;;;;;;;5.70;4.70;;;;;;;-128.00;-1.00;-1.00;105707;1251;1004160;-73
2023/05/01 07:48:37;;;;;;;5.60;3.80;;;;;;;-128.00;-1.00;-1.00;105774;1251;1004541;-72
2023/05/01 07:51:04;;;;;;;6.80;4.30;;;;;;;-128.00;-1.00;-1.00;105756;1251;1004344;-72
2023/05/01 07:53:31;;;;;;;6.30;4.20;;;;;;;-128.00;-1.00;-1.00;105739;1251;1004606;-72
2023/05/01 07:56:06;;;;;;;6.30;4.10;;;;;;;-128.00;-1.00;-1.00;105762;1251;1004133;-72
2023/05/01 07:58:33;;;;;;;5.20;3.80;;;;;;;-128.00;-1.00;-1.00;105777;1252;1061777;-72
2023/05/01 08:01:00;;;;;;;4.80;3.60;;;;;;;-128.00;-1.00;-1.00;105724;1251;1003980;-72
2023/05/01 08:03:28;;;;;;;7.00;4.50;;;;;;;-128.00;-1.00;-1.00;105737;1253;1004262;-72
2023/05/01 08:05:55;;;;;;;6.70;4.30;;;;;;;-128.00;-1.00;-1.00;105772;1252;1004827;-73
2023/05/01 08:08:22;;;;;;;9.40;4.60;;;;;;;-128.00;-1.00;-1.00;105763;1253;1003591;-73
2023/05/01 08:10:50;;;;;;;7.30;4.50;;;;;;;-128.00;-1.00;-1.00;105729;1255;1004271;-73
2023/05/01 08:13:17;;;;;;;8.70;4.20;;;;;;;-128.00;-1.00;-1.00;105736;1253;1003454;-72
2023/05/01 08:15:46;;;;;;;11.60;9.20;;;;;;;-128.00;-1.00;-1.00;105700;1251;1004625;-72
2023/05/01 08:18:19;;;;;;;6.10;4.20;;;;;;;-128.00;-1.00;-1.00;105472;1253;1044656;-72
2023/05/01 08:20:47;;;;;;;7.40;4.60;;;;;;;-128.00;-1.00;-1.00;105787;1253;1047841;-73
2023/05/01 08:23:14;;;;;;;22.20;7.50;;;;;;;-128.00;-1.00;-1.00;105736;1252;1005423;-73
2023/05/01 08:25:41;;;;;;;7.20;3.80;;;;;;;-128.00;-1.00;-1.00;105783;1252;1004385;-73
2023/05/01 08:28:09;;;;;;;5.70;3.70;;;;;;;-128.00;-1.00;-1.00;105727;1255;1004334;-73
2023/05/01 08:30:35;;;;;;;6.00;3.70;;;;;;;-128.00;-1.00;-1.00;105725;1253;1003434;-72
2023/05/01 08:33:02;;;;;;;5.20;3.90;;;;;;;-128.00;-1.00;-1.00;105732;1252;1003759;-72
2023/05/01 08:35:28;;;;;;;8.40;4.30;;;;;;;-128.00;-1.00;-1.00;105499;1253;1003839;-72
2023/05/01 08:37:55;;;;;;;6.10;4.20;;;;;;;-128.00;-1.00;-1.00;105727;1254;1004242;-73
2023/05/01 08:40:22;;;;;;;6.10;3.80;;;;;;;-128.00;-1.00;-1.00;105708;1253;1004599;-73
2023/05/01 08:42:50;;;;;;;4.60;3.20;;;;;;;-128.00;-1.00;-1.00;105765;1254;1004169;-72
2023/05/01 08:45:17;;;;;;;3.90;3.30;;;;;;;-128.00;-1.00;-1.00;105735;1254;1004632;-73
2023/05/01 08:47:46;;;;;;;7.20;4.20;;;;;;;-128.00;-1.00;-1.00;105755;1251;1004899;-73
2023/05/01 08:50:16;;;;;;;9.80;4.70;;;;;;;-128.00;-1.00;-1.00;105784;1252;1055816;-76
2023/05/01 08:52:43;;;;;;;7.20;4.60;;;;;;;-128.00;-1.00;-1.00;105720;1253;1058278;-74
2023/05/01 08:55:13;;;;;;;5.80;4.00;;;;;;;-128.00;-1.00;-1.00;105722;1253;1003436;-73
2023/05/01 08:57:46;;;;;;;6.00;3.60;;;;;;;-128.00;-1.00;-1.00;105716;1253;1047611;-73
2023/05/01 09:00:18;;;;;;;4.70;3.10;;;;;;;-128.00;-1.00;-1.00;105701;1253;1061280;-73
2023/05/01 09:02:47;;;;;;;4.60;3.20;;;;;;;-128.00;-1.00;-1.00;105725;1252;1056392;-72
2023/05/01 09:05:17;;;;;;;6.00;3.00;;;;;;;-128.00;-1.00;-1.00;105728;1253;1060379;-72
2023/05/01 09:07:45;;;;;;;3.70;2.60;;;;;;;-128.00;-1.00;-1.00;105696;1254;1044882;-72
2023/05/01 09:10:14;;;;;;;4.70;3.00;;;;;;;-128.00;-1.00;-1.00;105736;1252;1003903;-72
2023/05/01 09:12:43;;;;;;;4.50;2.90;;;;;;;-128.00;-1.00;-1.00;105796;1253;1061450;-73
2023/05/01 09:15:10;;;;;;;4.30;2.70;;;;;;;-128.00;-1.00;-1.00;105776;1255;1055358;-72
2023/05/01 09:17:37;;;;;;;5.30;2.80;;;;;;;-128.00;-1.00;-1.00;105703;1253;1003823;-72
2023/05/01 09:20:04;;;;;;;4.00;2.40;;;;;;;-128.00;-1.00;-1.00;105739;1252;1004169;-73
2023/05/01 09:22:32;;;;;;;4.70;2.50;;;;;;;-128.00;-1.00;-1.00;105771;1254;1004188;-73
2023/05/01 09:24:59;;;;;;;6.20;2.30;;;;;;;-128.00;-1.00;-1.00;105715;1254;1004600;-72
2023/05/01 09:27:26;;;;;;;3.60;2.50;;;;;;;-128.00;-1.00;-1.00;105766;1252;1005605;-72
2023/05/01 09:29:53;;;;;;;4.70;2.70;;;;;;;-128.00;-1.00;-1.00;105724;1253;1005133;-72
2023/05/01 09:32:26;;;;;;;3.90;2.70;;;;;;;-128.00;-1.00;-1.00;105660;1254;1004059;-72
2023/05/01 09:34:54;;;;;;;5.50;2.80;;;;;;;-128.00;-1.00;-1.00;105744;1253;1046487;-73
2023/05/01 09:37:29;;;;;;;2.80;2.20;;;;;;;-128.00;-1.00;-1.00;105758;1254;1003110;-73
2023/05/01 09:40:04;;;;;;;4.10;2.60;;;;;;;-128.00;-1.00;-1.00;105712;1255;1056311;-73
2023/05/01 09:42:32;;;;;;;5.50;3.00;;;;;;;-128.00;-1.00;-1.00;105705;1254;1059000;-72
2023/05/01 09:45:00;;;;;;;2.60;1.80;;;;;;;-128.00;-1.00;-1.00;105433;1254;1003855;-72
2023/05/01 09:47:28;;;;;;;4.60;2.60;;;;;;;-128.00;-1.00;-1.00;105733;1252;1004122;-72
2023/05/01 09:49:56;;;;;;;4.60;2.40;;;;;;;-128.00;-1.00;-1.00;105763;1254;1003758;-72
2023/05/01 09:52:27;;;;;;;3.60;2.90;;;;;;;-128.00;-1.00;-1.00;105698;1254;1004265;-72
2023/05/01 09:55:15;;;;;;;4.80;3.00;;;;;;;-128.00;-1.00;-1.00;105592;1254;1059019;-72
2023/05/01 09:57:44;;;;;;;4.00;2.70;;;;;;;-128.00;-1.00;-1.00;105688;1252;1044440;-72
2023/05/01 10:00:14;;;;;;;3.90;2.20;;;;;;;-128.00;-1.00;-1.00;105750;1253;1046252;-73
2023/05/01 10:02:44;;;;;;;4.40;2.40;;;;;;;-128.00;-1.00;-1.00;105694;1253;1061253;-73
2023/05/01 10:05:11;;;;;;;5.00;2.50;;;;;;;-128.00;-1.00;-1.00;105731;1254;1055234;-73
2023/05/01 10:07:38;;;;;;;4.40;1.90;;;;;;;-128.00;-1.00;-1.00;105728;1254;1004586;-73
2023/05/01 10:10:19;;;;;;;5.80;2.40;;;;;;;-128.00;-1.00;-1.00;105728;1252;1004568;-73
2023/05/01 10:12:45;;;;;;;;;;;;;;;-128.00;-1.00;-1.00;105706;1254;1047397;-73
2023/05/01 10:15:12;;;;;;;3.80;2.10;;;;;;;-128.00;-1.00;-1.00;105726;1256;1004460;-73
2023/05/01 10:17:41;;;;;;;2.60;2.20;;;;;;;-128.00;-1.00;-1.00;105659;1254;1005003;-74
2023/05/01 10:20:08;;;;;;;5.20;2.40;;;;;;;-128.00;-1.00;-1.00;105748;1254;1004639;-74
2023/05/01 10:22:35;;;;;;;5.40;2.20;;;;;;;-128.00;-1.00;-1.00;105728;1254;1004949;-74
2023/05/01 10:25:03;;;;;;;3.80;1.90;;;;;;;-128.00;-1.00;-1.00;105601;1253;1004209;-74
2023/05/01 10:27:30;;;;;;;4.00;2.60;;;;;;;-128.00;-1.00;-1.00;105724;1251;1003392;-73
2023/05/01 10:30:00;;;;;;;5.10;2.70;;;;;;;-128.00;-1.00;-1.00;105769;1252;1003398;-74
2023/05/01 10:32:28;;;;;;;5.30;2.50;;;;;;;-128.00;-1.00;-1.00;105710;1254;1059080;-74
2023/05/01 10:34:59;;;;;;;5.30;2.40;;;;;;;-128.00;-1.00;-1.00;105720;1254;1006226;-74
2023/05/01 10:37:38;;;;;;;4.50;2.30;;;;;;;-128.00;-1.00;-1.00;105681;1252;1046999;-74
2023/05/01 10:40:38;;;;;;;3.40;2.10;;;;;;;-128.00;-1.00;-1.00;105737;1252;1061644;-74
2023/05/01 10:43:28;;;;;;;4.30;2.00;;;;;;;-128.00;-1.00;-1.00;105696;1254;1055238;-73
2023/05/01 10:46:25;;;;;;;2.90;1.70;;;;;;;-128.00;-1.00;-1.00;105708;1254;1059076;-73
2023/05/01 10:48:53;;;;;;;4.70;2.50;;;;;;;-128.00;-1.00;-1.00;105697;1254;1045887;-73
2023/05/01 10:51:26;;;;;;;2.40;1.70;;;;;;;-128.00;-1.00;-1.00;105730;1252;1004295;-73
2023/05/01 10:54:11;;;;;;;4.90;2.10;;;;;;;-128.00;-1.00;-1.00;105736;1254;1061813;-73
2023/05/01 10:56:39;;;;;;;4.20;1.80;;;;;;;-128.00;-1.00;-1.00;105706;1253;1056915;-73
2023/05/01 10:59:06;;;;;;;3.60;2.00;;;;;;;-128.00;-1.00;-1.00;105666;1253;1004373;-73
2023/05/01 11:01:38;;;;;;;3.50;1.90;;;;;;;-128.00;-1.00;-1.00;105698;1253;1004617;-73
2023/05/01 11:04:23;;;;;;;4.80;2.00;;;;;;;-128.00;-1.00;-1.00;105708;1253;1046518;-73
2023/05/01 11:07:06;;;;;;;3.90;2.00;;;;;;;-128.00;-1.00;-1.00;105682;1251;1060452;-73
2023/05/01 11:09:40;;;;;;;3.50;1.70;;;;;;;-128.00;-1.00;-1.00;105709;1253;1055607;-74
2023/05/01 11:12:12;;;;;;;3.00;2.10;;;;;;;-128.00;-1.00;-1.00;105615;1254;1060515;-73
2023/05/01 11:15:01;;;;;;;2.80;1.90;;;;;;;-128.00;-1.00;-1.00;105677;1252;1045032;-73
2023/05/01 11:17:41;;;;;;;3.10;1.90;;;;;;;-128.00;-1.00;-1.00;105705;1254;1046606;-74